createdAt,value
2022-08-14T00:02:20.040Z,77.12
2022-08-14T00:05:06.988Z,77.06
2022-08-14T00:07:47.265Z,76.59
2022-08-14T00:10:51.363Z,76.57
2022-08-14T00:13:35.610Z,76.33
2022-08-14T00:16:41.627Z,76.60
2022-08-14T00:19:29.973Z,76.65
2022-08-14T00:22:15.545Z,77.12
2022-08-14T00:25:22.951Z,77.38
2022-08-14T00:28:10.976Z,77.75
2022-08-14T00:31:04.694Z,78.27
2022-08-14T00:33:53.028Z,78.27
2022-08-14T00:36:49.229Z,78.34
2022-08-14T00:39:36.987Z,78.24
2022-08-14T00:42:55.034Z,78.07
2022-08-14T00:45:24.419Z,77.45
2022-08-14T00:48:10.902Z,77.85
2022-08-14T00:50:53.457Z,78.35
2022-08-14T00:53:43.762Z,77.92
2022-08-14T00:56:25.826Z,78.30
2022-08-14T00:59:17.950Z,78.80
2022-08-14T01:02:00.806Z,79.06
2022-08-14T01:04:54.231Z,79.07
2022-08-14T01:07:50.408Z,79.23
2022-08-14T01:10:51.353Z,79.21
2022-08-14T01:13:42.992Z,79.31
2022-08-14T01:16:27.381Z,79.52
2022-08-14T01:19:36.882Z,79.01
2022-08-14T01:22:20.058Z,78.94
2022-08-14T01:25:07.858Z,78.50
2022-08-14T01:27:56.948Z,78.66
2022-08-14T01:30:44.939Z,78.83
2022-08-14T01:33:29.177Z,79.11
2022-08-14T01:36:21.151Z,79.43
2022-08-14T01:39:12.818Z,78.72
2022-08-14T01:42:03.902Z,78.73
2022-08-14T01:44:58.667Z,78.76
2022-08-14T01:47:45.879Z,78.26
2022-08-14T01:50:29.013Z,77.74
2022-08-14T01:53:16.908Z,77.98
2022-08-14T01:55:58.773Z,78.03
2022-08-14T01:58:57.176Z,77.78
2022-08-14T02:01:41.995Z,77.48
2022-08-14T02:04:56.617Z,77.85
2022-08-14T02:07:53.785Z,78.44
2022-08-14T02:10:48.881Z,78.37
2022-08-14T02:13:37.201Z,78.44
2022-08-14T02:16:22.440Z,78.61
2022-08-14T02:19:12.865Z,78.92
2022-08-14T02:22:03.359Z,78.92
2022-08-14T02:24:45.303Z,78.57
2022-08-14T02:28:23.733Z,77.80
2022-08-14T02:30:38.315Z,78.35
2022-08-14T02:33:25.838Z,77.57
2022-08-14T02:37:02.921Z,77.87
2022-08-14T02:39:17.844Z,77.91
2022-08-14T02:42:06.801Z,77.27
2022-08-14T02:44:59.801Z,77.24
2022-08-14T02:47:39.924Z,76.89
2022-08-14T02:50:34.836Z,77.29
2022-08-14T03:12:34.347Z,79.85
2022-08-14T03:15:21.409Z,79.12
2022-08-14T03:18:09.342Z,78.80
2022-08-14T03:20:58.381Z,78.27
2022-08-14T03:23:39.159Z,78.05
2022-08-14T03:26:32.339Z,77.62
2022-08-14T03:29:14.475Z,77.05
2022-08-14T03:32:02.333Z,77.28
2022-08-14T03:34:48.410Z,76.62
2022-08-14T03:39:11.817Z,76.68
2022-08-14T03:40:43.602Z,76.29
2022-08-14T03:43:34.320Z,75.63
2022-08-14T03:46:52.715Z,75.83
2022-08-14T03:49:29.483Z,75.20
2022-08-14T03:52:28.145Z,75.03
2022-08-14T03:55:14.431Z,75.00
2022-08-14T03:58:02.330Z,74.93
2022-08-14T04:00:46.311Z,75.01
2022-08-14T04:03:33.347Z,74.86
2022-08-14T04:06:21.135Z,74.49
2022-08-14T04:09:08.319Z,73.08
2022-08-14T04:11:49.426Z,72.88
2022-08-14T04:14:37.477Z,71.01
2022-08-14T04:17:25.278Z,69.83
2022-08-14T04:20:14.289Z,68.80
2022-08-14T04:23:18.506Z,68.06
2022-08-14T04:26:14.629Z,67.41
2022-08-14T04:29:06.998Z,66.69
2022-08-14T04:32:58.633Z,66.16
2022-08-14T04:35:07.678Z,66.20
2022-08-14T04:38:37.280Z,65.16
2022-08-14T04:41:33.959Z,64.75
2022-08-14T04:44:26.562Z,64.45
2022-08-14T04:48:01.264Z,64.52
2022-08-14T04:50:58.360Z,63.86
2022-08-14T04:53:43.002Z,64.28
2022-08-14T04:56:31.475Z,64.78
2022-08-14T04:59:21.282Z,63.09
2022-08-14T05:02:01.740Z,61.63
2022-08-14T05:04:57.079Z,61.36
2022-08-14T05:07:46.347Z,60.76
2022-08-14T05:10:34.243Z,59.21
2022-08-14T05:13:24.572Z,58.15
2022-08-14T05:16:20.252Z,56.62
2022-08-14T05:19:18.938Z,55.72
2022-08-14T05:22:17.495Z,55.78
2022-08-14T05:25:07.259Z,53.73
2022-08-14T05:27:47.339Z,51.70
2022-08-14T05:30:34.244Z,51.91
2022-08-14T05:33:21.254Z,50.80
2022-08-14T05:36:04.976Z,51.18
2022-08-14T05:38:57.238Z,47.69
2022-08-14T05:41:52.322Z,46.15
2022-08-14T05:44:41.216Z,48.62
2022-08-14T05:47:28.542Z,45.51
2022-08-14T05:50:26.254Z,46.23
2022-08-14T05:53:23.231Z,44.47
2022-08-14T05:56:03.617Z,43.20
2022-08-14T05:58:50.225Z,41.22
2022-08-14T06:01:31.554Z,41.17
2022-08-14T06:04:19.198Z,39.25
2022-08-14T06:06:59.689Z,40.28
2022-08-14T06:09:50.943Z,40.31
2022-08-14T06:12:56.569Z,41.37
2022-08-14T06:15:37.186Z,42.09
2022-08-14T06:18:18.131Z,40.25
2022-08-14T06:21:05.183Z,41.19
2022-08-14T06:24:00.222Z,38.89
2022-08-14T06:26:40.428Z,37.31
2022-08-14T06:29:33.368Z,37.53
2022-08-14T06:32:36.593Z,37.41
2022-08-14T06:35:23.169Z,36.11
2022-08-14T06:38:06.284Z,35.59
2022-08-14T06:40:54.183Z,36.05
2022-08-14T06:43:41.177Z,34.74
2022-08-14T06:46:37.026Z,32.15
2022-08-14T06:49:24.186Z,32.85
2022-08-14T06:52:15.054Z,31.77
2022-08-14T06:55:04.171Z,33.68
2022-08-14T06:57:53.191Z,35.57
2022-08-14T07:00:35.262Z,33.41
2022-08-14T07:03:41.175Z,31.42
2022-08-14T07:06:46.435Z,29.99
2022-08-14T07:09:43.897Z,29.41
2022-08-14T07:12:56.316Z,27.72
2022-08-14T07:15:45.141Z,32.07
2022-08-14T07:18:36.117Z,37.95
2022-08-14T07:21:23.130Z,40.14
2022-08-14T07:24:22.127Z,43.13
2022-08-14T07:27:17.232Z,44.36
2022-08-14T07:29:57.167Z,44.16
2022-08-14T07:32:44.125Z,45.01
2022-08-14T07:35:24.280Z,43.99
2022-08-14T07:38:29.688Z,45.17
2022-08-14T07:41:24.166Z,46.11
2022-08-14T07:44:31.987Z,46.11
2022-08-14T07:47:18.111Z,46.30
2022-08-14T07:50:11.569Z,44.86
2022-08-14T07:53:03.110Z,44.97
2022-08-14T07:56:09.062Z,43.71
2022-08-14T07:58:52.584Z,43.85
2022-08-14T08:01:33.577Z,44.46
2022-08-14T08:04:25.034Z,46.29
2022-08-14T08:07:05.829Z,45.23
2022-08-14T08:09:58.113Z,46.29
2022-08-14T08:12:46.313Z,49.25
2022-08-14T08:15:28.249Z,48.57
2022-08-14T08:18:27.703Z,49.27
2022-08-14T08:21:09.405Z,49.43
2022-08-14T08:24:01.077Z,50.56
2022-08-14T08:26:50.377Z,48.13
2022-08-14T08:29:38.110Z,47.98
2022-08-14T08:32:22.561Z,47.39
2022-08-14T08:35:24.049Z,49.74
2022-08-14T08:39:15.408Z,48.56
2022-08-14T08:41:35.086Z,50.01
2022-08-14T08:44:30.060Z,50.60
2022-08-14T08:47:19.061Z,50.89
2022-08-14T08:50:00.352Z,49.85
2022-08-14T08:52:55.057Z,49.77
2022-08-14T08:55:42.349Z,50.47
2022-08-14T08:58:29.032Z,51.50
2022-08-14T09:01:09.196Z,49.42
2022-08-14T09:04:14.894Z,51.07
2022-08-14T09:07:09.519Z,51.57
2022-08-14T09:10:01.112Z,49.63
2022-08-14T09:12:51.473Z,48.97
2022-08-14T09:15:42.363Z,49.71
2022-08-14T09:18:27.272Z,52.39
2022-08-14T09:21:16.147Z,54.26
2022-08-14T09:24:29.537Z,53.36
2022-08-14T09:27:03.643Z,51.89
2022-08-14T09:29:54.462Z,51.56
2022-08-14T09:33:12.611Z,53.65
2022-08-14T09:36:18.504Z,55.17
2022-08-14T09:39:39.184Z,53.22
2022-08-14T09:42:53.151Z,52.42
2022-08-14T09:45:53.443Z,54.53
2022-08-14T09:48:41.029Z,51.58
2022-08-14T09:51:25.946Z,51.39
2022-08-14T09:54:23.670Z,53.78
2022-08-14T09:57:08.948Z,56.37
2022-08-14T10:00:00.981Z,55.56
2022-08-14T10:02:52.711Z,54.15
2022-08-14T10:05:48.961Z,53.65
2022-08-14T10:08:57.028Z,53.55
2022-08-14T10:11:43.432Z,52.72
2022-08-14T10:14:37.299Z,53.21
2022-08-14T10:17:23.973Z,54.35
2022-08-14T10:20:39.387Z,55.55
2022-08-14T10:23:33.759Z,55.23
2022-08-14T10:26:28.193Z,54.85
2022-08-14T10:29:25.945Z,55.49
2022-08-14T10:32:18.233Z,52.78
2022-08-14T10:35:31.112Z,53.39
2022-08-14T10:38:12.425Z,53.37
2022-08-14T10:41:02.273Z,55.76
2022-08-14T10:43:44.816Z,54.78
2022-08-14T10:47:39.257Z,55.28
2022-08-14T10:49:42.939Z,55.77
2022-08-14T10:52:45.213Z,54.10
2022-08-14T10:55:39.460Z,54.75
2022-08-14T10:58:41.916Z,56.23
2022-08-14T11:01:41.548Z,56.56
2022-08-14T11:04:37.944Z,55.98
2022-08-14T11:07:25.937Z,52.02
2022-08-14T11:10:14.959Z,46.98
2022-08-14T11:13:11.909Z,46.76
2022-08-14T11:15:59.917Z,42.62
2022-08-14T11:18:40.669Z,45.21
2022-08-14T11:21:30.303Z,44.44
2022-08-14T11:24:50.554Z,43.96
2022-08-14T11:27:33.321Z,45.87
2022-08-14T11:30:49.832Z,45.84
2022-08-14T11:33:19.888Z,45.59
2022-08-14T11:36:18.411Z,47.01
2022-08-14T11:38:59.028Z,49.45
2022-08-14T11:41:55.885Z,53.79
2022-08-14T11:44:45.910Z,59.48
2022-08-14T11:47:43.691Z,63.07
2022-08-14T11:50:38.906Z,65.05
2022-08-14T11:53:41.926Z,67.15
2022-08-14T11:56:25.753Z,66.91
2022-08-14T11:59:26.285Z,68.16
2022-08-14T12:03:00.782Z,69.15
2022-08-14T12:05:42.855Z,69.37
2022-08-14T12:08:30.866Z,70.08
2022-08-14T12:11:26.839Z,69.23
2022-08-14T12:14:08.879Z,68.60
2022-08-14T12:17:16.849Z,67.74
2022-08-14T12:20:06.729Z,68.48
2022-08-14T12:22:58.850Z,68.74
2022-08-14T12:25:46.814Z,69.46
2022-08-14T12:29:00.173Z,69.00
2022-08-14T12:31:44.931Z,68.98
2022-08-14T12:34:33.861Z,68.93
2022-08-14T12:37:15.326Z,70.17
2022-08-14T12:40:01.935Z,70.81
2022-08-14T12:42:44.793Z,71.13
2022-08-14T12:45:46.804Z,71.53
2022-08-14T12:48:31.948Z,70.50
2022-08-14T12:51:32.782Z,70.98
2022-08-14T12:54:27.223Z,70.91
2022-08-14T12:57:22.786Z,71.15
2022-08-14T13:00:23.070Z,71.81
2022-08-14T13:03:04.806Z,69.73
2022-08-14T13:05:44.884Z,71.00
2022-08-14T13:08:33.472Z,71.12
2022-08-14T13:11:28.791Z,70.35
2022-08-14T13:14:17.345Z,69.35
2022-08-14T13:17:10.786Z,71.23
2022-08-14T13:19:55.048Z,71.78
2022-08-14T13:22:42.741Z,73.16
2022-08-14T13:25:34.611Z,73.47
2022-08-14T13:28:33.844Z,73.64
2022-08-14T13:31:23.962Z,72.09
2022-08-14T13:34:16.765Z,71.43
2022-08-14T13:37:04.408Z,71.35
2022-08-14T13:39:56.382Z,70.87
2022-08-14T13:42:49.848Z,71.24
2022-08-14T13:45:59.990Z,69.74
2022-08-14T13:48:39.745Z,68.08
2022-08-14T13:51:24.464Z,67.64
2022-08-14T13:54:12.758Z,67.42
2022-08-14T13:56:53.857Z,67.42
2022-08-14T13:59:41.765Z,67.20
2022-08-14T14:02:31.884Z,67.19
2022-08-14T14:05:21.045Z,66.82
2022-08-14T14:08:18.512Z,66.29
2022-08-14T14:11:05.747Z,66.70
2022-08-14T14:13:52.857Z,66.05
2022-08-14T14:16:33.714Z,66.46
2022-08-14T14:19:18.633Z,66.78
2022-08-14T14:22:05.740Z,66.29
2022-08-14T14:24:50.165Z,66.25
2022-08-14T14:27:41.561Z,66.11
2022-08-14T14:30:52.435Z,67.07
2022-08-14T14:33:49.504Z,67.24
2022-08-14T14:36:35.701Z,66.95
2022-08-14T14:39:23.766Z,66.83
2022-08-14T14:42:06.265Z,67.73
2022-08-14T14:44:59.732Z,66.42
2022-08-14T14:47:39.865Z,66.87
2022-08-14T14:50:28.751Z,66.56
2022-08-14T14:53:12.808Z,65.98
2022-08-14T14:56:47.151Z,66.23
2022-08-14T15:14:54.808Z,68.22
2022-08-14T15:17:41.046Z,67.71
2022-08-14T15:20:30.314Z,67.31
2022-08-14T15:23:18.227Z,68.21
2022-08-14T15:26:09.218Z,68.51
2022-08-14T15:29:02.775Z,68.82
2022-08-14T15:31:54.025Z,69.57
2022-08-14T15:34:46.051Z,69.23
2022-08-14T15:37:42.486Z,68.70
2022-08-14T15:40:29.208Z,68.43
2022-08-14T15:43:14.765Z,68.58
2022-08-14T15:46:03.212Z,68.99
2022-08-14T15:48:43.946Z,68.59
2022-08-14T15:51:31.236Z,68.00
2022-08-14T15:54:11.619Z,68.44
2022-08-14T15:57:12.166Z,68.29
2022-08-14T16:00:11.337Z,65.19
2022-08-14T16:03:09.626Z,63.68
2022-08-14T16:05:56.198Z,63.97
2022-08-14T16:08:38.207Z,63.95
2022-08-14T16:11:26.148Z,63.63
2022-08-14T16:14:20.584Z,63.09
2022-08-14T16:17:08.165Z,63.42
2022-08-14T16:19:49.352Z,63.19
2022-08-14T16:22:59.376Z,63.19
2022-08-14T16:25:47.108Z,62.54
2022-08-14T16:28:41.163Z,63.17
2022-08-14T16:31:36.246Z,63.67
2022-08-14T16:34:44.470Z,63.75
2022-08-14T16:37:34.004Z,64.02
2022-08-14T16:40:14.579Z,64.09
2022-08-14T16:43:12.994Z,65.10
2022-08-14T16:46:00.129Z,64.62
2022-08-14T16:48:55.394Z,64.98
2022-08-14T16:51:52.815Z,64.96
2022-08-14T16:54:44.424Z,65.16
2022-08-14T16:57:26.270Z,65.37
2022-08-14T17:00:19.758Z,65.82
2022-08-14T17:03:17.097Z,65.85
2022-08-14T17:06:04.087Z,66.55
2022-08-14T17:09:13.114Z,66.80
2022-08-14T17:12:07.549Z,67.35
2022-08-14T17:14:59.408Z,67.49
2022-08-14T17:17:45.078Z,67.60
2022-08-14T17:21:00.390Z,67.71
2022-08-14T17:23:45.077Z,67.77
2022-08-14T17:26:46.100Z,68.24
2022-08-14T17:32:57.130Z,70.62
2022-08-14T17:35:58.160Z,71.92
2022-08-14T17:39:06.640Z,72.94
2022-08-14T17:42:13.340Z,73.50
2022-08-14T17:47:55.085Z,74.61
2022-08-14T17:51:00.259Z,75.31
2022-08-14T17:53:52.814Z,75.85
2022-08-14T17:56:36.225Z,75.75
2022-08-14T17:59:26.071Z,76.12
2022-08-14T18:02:10.553Z,76.15
2022-08-14T18:05:08.188Z,76.31
2022-08-14T18:07:59.781Z,75.98
2022-08-14T18:10:59.057Z,75.47
2022-08-14T18:13:54.032Z,75.59
2022-08-14T18:16:42.023Z,74.95
2022-08-14T18:19:23.136Z,74.68
2022-08-14T18:22:30.990Z,74.66
2022-08-14T18:25:17.425Z,74.77
2022-08-14T18:28:16.114Z,74.37
2022-08-14T18:31:28.022Z,74.97
2022-08-14T18:34:30.623Z,74.88
2022-08-14T18:37:27.002Z,74.67
2022-08-14T18:40:40.231Z,74.84
2022-08-14T18:44:00.990Z,75.10
2022-08-14T18:47:20.015Z,75.30
2022-08-14T18:50:26.284Z,75.44
2022-08-14T18:53:15.196Z,75.19
2022-08-14T18:56:09.999Z,74.90
2022-08-14T18:58:59.763Z,74.92
2022-08-14T19:01:51.764Z,74.81
2022-08-14T19:04:51.016Z,74.78
2022-08-14T19:07:37.993Z,74.77
2022-08-14T19:10:19.059Z,74.74
2022-08-14T19:13:13.259Z,74.67
2022-08-14T19:16:26.211Z,74.42
2022-08-14T19:19:14.991Z,75.07
2022-08-14T19:22:12.717Z,75.19
2022-08-14T19:25:06.982Z,75.23
2022-08-14T19:27:51.300Z,75.57
2022-08-14T19:30:42.963Z,75.70
2022-08-14T19:33:51.959Z,75.76
2022-08-14T19:37:05.661Z,76.12
2022-08-14T19:40:15.425Z,76.14
2022-08-14T19:43:01.229Z,76.03
2022-08-14T19:45:51.963Z,76.24
2022-08-14T19:48:56.727Z,76.32
2022-08-14T19:51:43.951Z,76.10
2022-08-14T19:54:34.799Z,76.18
2022-08-14T19:57:29.924Z,76.38
2022-08-14T20:00:28.013Z,76.03
2022-08-14T20:03:24.022Z,76.16
2022-08-14T20:06:05.942Z,76.42
2022-08-14T20:11:00.995Z,76.95
2022-08-14T20:12:04.579Z,77.26
2022-08-14T20:14:51.914Z,78.04
2022-08-14T20:17:40.334Z,77.99
2022-08-14T20:20:32.557Z,78.65
2022-08-14T20:23:16.504Z,78.84
2022-08-14T20:26:02.890Z,79.26
2022-08-14T20:28:51.386Z,79.11
2022-08-14T20:31:38.896Z,79.56
2022-08-14T20:34:35.496Z,79.38
2022-08-14T20:37:22.736Z,79.07
2022-08-14T20:40:24.249Z,78.92
2022-08-14T20:43:29.894Z,78.72
2022-08-14T20:46:29.389Z,78.51
2022-08-14T20:49:25.896Z,77.96
2022-08-14T20:52:19.890Z,78.11
2022-08-14T20:55:07.897Z,79.16
2022-08-14T20:57:58.903Z,79.85
2022-08-14T21:00:57.904Z,79.92
2022-08-14T21:03:56.452Z,80.04
2022-08-14T21:07:22.899Z,80.39
2022-08-14T21:10:05.791Z,80.42
2022-08-14T21:13:25.665Z,80.76
2022-08-14T21:16:02.952Z,80.46
2022-08-14T21:19:01.893Z,80.89
2022-08-14T21:21:42.532Z,81.06
2022-08-14T21:24:39.635Z,81.59
2022-08-14T21:27:37.190Z,81.17
2022-08-14T21:30:46.731Z,81.77
2022-08-14T21:33:31.857Z,81.83
2022-08-14T21:36:22.069Z,81.78
2022-08-14T21:39:08.898Z,81.94
2022-08-14T21:42:01.828Z,82.04
2022-08-14T21:44:51.824Z,82.39
2022-08-14T21:47:33.217Z,82.40
2022-08-14T21:51:00.126Z,82.01
2022-08-14T21:53:25.135Z,82.28
2022-08-14T21:56:12.797Z,82.12
2022-08-14T21:58:56.634Z,82.09
2022-08-14T22:02:01.064Z,81.98
2022-08-14T22:04:44.918Z,82.03
2022-08-14T22:07:38.888Z,82.82
2022-08-14T22:10:24.272Z,82.84
2022-08-14T22:13:11.537Z,82.86
2022-08-14T22:16:02.359Z,83.59
2022-08-14T22:18:43.170Z,83.92
2022-08-14T22:21:34.824Z,84.17
2022-08-14T22:24:25.874Z,84.34
2022-08-14T22:27:17.889Z,84.62
2022-08-14T22:30:12.050Z,84.63
2022-08-14T22:32:57.589Z,84.38
2022-08-14T22:35:45.736Z,84.12
2022-08-14T22:38:36.505Z,83.57
2022-08-14T22:41:27.767Z,83.49
2022-08-14T22:44:41.766Z,84.01
2022-08-14T22:47:25.041Z,83.61
2022-08-14T22:50:31.597Z,84.03
2022-08-14T22:53:13.038Z,84.06
2022-08-14T22:55:59.741Z,83.58
2022-08-14T22:58:41.352Z,83.86
2022-08-14T23:01:57.025Z,84.21
2022-08-14T23:04:53.958Z,84.45
2022-08-14T23:08:59.123Z,84.73
2022-08-14T23:10:42.834Z,85.04
2022-08-14T23:13:31.726Z,84.83
2022-08-14T23:16:20.601Z,84.75
2022-08-14T23:19:08.712Z,84.35
2022-08-14T23:21:50.694Z,84.43
2022-08-14T23:24:42.728Z,84.04
2022-08-14T23:27:31.597Z,83.89
2022-08-14T23:30:34.633Z,84.14
2022-08-14T23:33:26.322Z,83.95
2022-08-14T23:36:32.400Z,84.18
2022-08-14T23:39:24.629Z,84.19
2022-08-14T23:42:11.732Z,84.33
2022-08-14T23:44:58.693Z,84.11
2022-08-14T23:47:51.306Z,84.37
2022-08-14T23:50:38.851Z,84.18
2022-08-14T23:53:48.748Z,84.67
2022-08-14T23:56:39.657Z,84.82
2022-08-14T23:59:30.236Z,84.92
